createdAt,value
2018-12-14T00:00:15.954Z,-1.21
2018-12-14T00:02:46.169Z,-1.20
2018-12-14T00:05:18.802Z,-1.19
2018-12-14T00:07:49.625Z,-1.19
2018-12-14T00:10:22.731Z,-1.24
2018-12-14T00:12:53.056Z,-1.25
2018-12-14T00:19:16.652Z,-1.19
2018-12-14T00:21:46.772Z,-1.20
2018-12-14T00:24:17.736Z,-1.23
2018-12-14T00:26:49.855Z,-1.22
2018-12-14T00:29:26.533Z,-1.25
2018-12-14T00:31:57.876Z,-1.25
2018-12-14T00:34:28.555Z,-1.24
2018-12-14T00:36:59.257Z,-1.27
2018-12-14T00:39:29.884Z,-1.26
2018-12-14T00:42:00.748Z,-1.25
2018-12-14T00:44:31.004Z,-1.30
2018-12-14T00:47:07.901Z,-1.24
2018-12-14T00:49:38.806Z,-1.26
2018-12-14T00:52:09.973Z,-1.32
2018-12-14T00:54:40.110Z,-1.29
2018-12-14T00:57:16.931Z,-1.21
2018-12-14T00:59:46.956Z,-1.27
2018-12-14T01:02:23.276Z,-1.28
2018-12-14T01:04:55.050Z,-1.33
2018-12-14T01:07:31.863Z,-1.36
2018-12-14T01:10:01.924Z,-1.36
2018-12-14T01:12:32.147Z,-1.35
2018-12-14T01:15:06.384Z,-1.32
2018-12-14T01:17:39.065Z,-1.38
2018-12-14T01:20:10.553Z,-1.37
2018-12-14T01:22:40.914Z,-1.37
2018-12-14T01:25:11.233Z,-1.40
2018-12-14T01:27:42.099Z,-1.38
2018-12-14T01:30:12.892Z,-1.38
2018-12-14T01:32:43.156Z,-1.37
2018-12-14T01:35:14.257Z,-1.37
2018-12-14T01:37:44.767Z,-1.31
2018-12-14T01:40:15.170Z,-1.34
2018-12-14T01:42:46.296Z,-1.31
2018-12-14T01:45:17.124Z,-1.31
2018-12-14T01:47:47.532Z,-1.20
2018-12-14T01:50:18.120Z,-1.21
2018-12-14T01:52:53.206Z,-1.21
2018-12-14T01:55:25.256Z,-1.23
2018-12-14T01:57:58.890Z,-1.24
2018-12-14T02:00:30.278Z,-1.22
2018-12-14T02:03:01.227Z,-1.17
2018-12-14T02:05:32.261Z,-1.16
2018-12-14T02:08:05.836Z,-1.12
2018-12-14T02:10:37.299Z,-1.09
2018-12-14T02:13:09.420Z,-1.09
2018-12-14T02:15:40.464Z,-1.11
2018-12-14T02:18:11.008Z,-1.11
2018-12-14T02:20:41.243Z,-1.09
2018-12-14T02:23:15.148Z,-1.01
2018-12-14T02:25:45.327Z,-1.06
2018-12-14T02:28:16.337Z,-1.11
2018-12-14T02:30:46.784Z,-1.02
2018-12-14T02:33:17.425Z,-1.01
2018-12-14T02:35:49.304Z,-1.03
2018-12-14T02:38:21.486Z,-1.02
2018-12-14T02:40:52.354Z,-1.02
2018-12-14T02:43:23.981Z,-0.94
2018-12-14T02:45:56.663Z,-0.98
2018-12-14T02:48:27.803Z,-0.93
2018-12-14T02:50:58.484Z,-0.96
2018-12-14T02:53:31.471Z,-0.93
2018-12-14T02:56:05.625Z,-0.91
2018-12-14T02:58:36.546Z,-0.94
2018-12-14T03:01:07.140Z,-0.99
2018-12-14T03:03:37.741Z,-0.99
2018-12-14T03:06:08.888Z,-0.98
2018-12-14T03:08:39.864Z,-0.99
2018-12-14T03:11:14.420Z,-0.99
2018-12-14T03:13:44.448Z,-0.99
2018-12-14T03:16:17.215Z,-0.96
2018-12-14T03:18:49.539Z,-0.96
2018-12-14T03:21:21.619Z,-0.92
2018-12-14T03:23:54.524Z,-0.90
2018-12-14T03:26:28.873Z,-0.94
2018-12-14T03:28:59.618Z,-0.93
2018-12-14T03:31:30.162Z,-0.96
2018-12-14T03:34:00.820Z,-0.97
2018-12-14T03:36:31.390Z,-0.98
2018-12-14T03:39:01.772Z,-0.96
2018-12-14T03:41:32.694Z,-0.97
2018-12-14T03:44:02.841Z,-1.00
2018-12-14T03:46:33.621Z,-1.01
2018-12-14T03:49:10.479Z,-1.01
2018-12-14T03:51:42.763Z,-1.02
2018-12-14T03:54:13.748Z,-0.99
2018-12-14T03:56:45.758Z,-0.99
2018-12-14T03:59:16.604Z,-1.00
2018-12-14T04:01:46.808Z,-1.02
2018-12-14T04:04:17.857Z,-0.98
2018-12-14T04:06:50.213Z,-1.00
2018-12-14T04:09:22.717Z,-1.04
2018-12-14T04:11:52.874Z,-1.02
2018-12-14T04:14:22.973Z,-1.01
2018-12-14T04:16:56.562Z,-1.05
2018-12-14T04:19:28.853Z,-1.07
2018-12-14T04:21:58.960Z,-1.04
2018-12-14T04:24:29.679Z,-1.05
2018-12-14T04:26:59.888Z,-1.07
2018-12-14T04:29:31.527Z,-1.33
2018-12-14T04:32:02.173Z,-1.12
2018-12-14T04:34:32.832Z,-1.06
2018-12-14T04:37:02.929Z,-1.08
2018-12-14T04:39:33.869Z,-1.09
2018-12-14T04:42:04.023Z,-1.10
2018-12-14T04:44:34.848Z,-1.16
2018-12-14T04:47:05.640Z,-1.11
2018-12-14T04:49:36.133Z,-1.13
2018-12-14T04:56:04.777Z,-1.09
2018-12-14T04:58:34.865Z,-1.11
2018-12-14T05:01:06.085Z,-1.15
2018-12-14T05:04:04.620Z,-1.10
2018-12-14T05:06:35.512Z,-1.16
2018-12-14T05:09:08.407Z,-1.19
2018-12-14T05:11:39.394Z,-1.19
2018-12-14T05:14:11.113Z,-1.20
2018-12-14T05:16:45.357Z,-1.27
2018-12-14T05:19:18.201Z,-1.30
2018-12-14T05:21:50.454Z,-1.28
2018-12-14T05:24:22.174Z,-1.29
2018-12-14T05:26:53.849Z,-1.36
2018-12-14T05:29:24.307Z,-1.41
2018-12-14T05:32:07.516Z,-1.47
2018-12-14T05:34:39.176Z,-1.56
2018-12-14T05:37:13.815Z,-1.60
2018-12-14T05:39:45.651Z,-1.61
2018-12-14T05:42:18.235Z,-1.65
2018-12-14T05:44:50.164Z,-1.67
2018-12-14T05:47:22.249Z,-1.62
2018-12-14T05:49:59.235Z,-1.58
2018-12-14T05:52:36.549Z,-1.54
2018-12-14T05:55:07.506Z,-1.52
2018-12-14T05:57:40.697Z,-1.49
2018-12-14T06:00:12.806Z,-1.46
2018-12-14T06:02:45.328Z,-1.43
2018-12-14T06:05:18.260Z,-1.39
2018-12-14T06:07:50.781Z,-1.39
2018-12-14T06:10:23.319Z,-1.42
2018-12-14T06:13:00.120Z,-1.39
2018-12-14T06:15:30.355Z,-1.43
2018-12-14T06:18:01.759Z,-1.44
2018-12-14T06:20:32.321Z,-1.40
2018-12-14T06:23:03.010Z,-1.45
2018-12-14T06:25:33.777Z,-1.42
2018-12-14T06:28:04.629Z,-1.42
2018-12-14T06:30:34.944Z,-1.42
2018-12-14T06:33:05.399Z,-1.41
2018-12-14T06:35:36.126Z,-1.44
2018-12-14T06:38:06.459Z,-1.47
2018-12-14T06:40:37.100Z,-1.43
2018-12-14T06:43:07.842Z,-1.50
2018-12-14T06:45:46.506Z,-1.47
2018-12-14T06:48:17.392Z,-1.47
2018-12-14T06:50:48.057Z,-1.52
2018-12-14T06:53:18.632Z,-1.53
2018-12-14T06:55:55.540Z,-1.51
2018-12-14T06:58:26.140Z,-1.53
2018-12-14T07:00:56.516Z,-1.56
2018-12-14T07:03:30.538Z,-1.53
2018-12-14T07:06:03.572Z,-1.54
2018-12-14T07:08:39.016Z,-1.51
2018-12-14T07:11:11.535Z,-1.48
2018-12-14T07:13:44.668Z,-1.49
2018-12-14T07:16:21.503Z,-1.52
2018-12-14T07:18:52.583Z,-1.54
2018-12-14T07:21:29.367Z,-1.48
2018-12-14T07:23:59.844Z,-1.47
2018-12-14T07:26:30.803Z,-1.48
2018-12-14T07:29:04.366Z,-1.48
2018-12-14T07:31:34.488Z,-1.42
2018-12-14T07:34:05.839Z,-1.38
2018-12-14T07:36:36.675Z,-1.40
2018-12-14T07:39:08.292Z,-1.40
2018-12-14T07:41:38.796Z,-1.42
2018-12-14T07:44:08.851Z,-1.33
2018-12-14T07:46:39.017Z,-1.39
2018-12-14T07:49:09.996Z,-1.36
2018-12-14T07:51:40.571Z,-1.34
2018-12-14T07:54:10.963Z,-1.36
2018-12-14T07:56:41.759Z,-1.30
2018-12-14T07:59:12.780Z,-1.31
2018-12-14T08:01:42.827Z,-1.27
2018-12-14T08:08:07.883Z,-1.25
2018-12-14T08:10:39.889Z,-1.26
2018-12-14T08:13:16.151Z,-1.24
2018-12-14T08:15:46.782Z,-1.19
2018-12-14T08:18:17.715Z,-1.15
2018-12-14T08:20:48.511Z,-1.17
2018-12-14T08:23:19.032Z,-1.17
2018-12-14T08:25:49.890Z,-1.22
2018-12-14T08:28:26.944Z,-1.20
2018-12-14T08:30:57.815Z,-1.13
2018-12-14T08:33:28.121Z,-1.20
2018-12-14T08:35:58.992Z,-1.24
2018-12-14T08:38:35.776Z,-1.23
2018-12-14T08:41:07.135Z,-1.14
2018-12-14T08:43:41.361Z,-1.10
2018-12-14T08:46:10.946Z,-0.99
2018-12-14T08:48:41.746Z,-1.02
2018-12-14T08:51:12.171Z,-0.91
2018-12-14T08:53:43.358Z,-0.93
2018-12-14T08:56:13.528Z,-0.90
2018-12-14T08:58:43.992Z,-0.91
2018-12-14T09:01:14.520Z,-0.85
2018-12-14T09:03:44.993Z,-0.84
2018-12-14T09:06:16.272Z,-0.92
2018-12-14T09:08:46.630Z,-0.93
2018-12-14T09:11:17.374Z,-0.91
2018-12-14T09:13:47.992Z,-0.96
2018-12-14T09:16:18.804Z,-0.97
2018-12-14T09:18:49.276Z,-0.98
2018-12-14T09:21:19.939Z,-0.93
2018-12-14T09:23:50.125Z,-0.96
2018-12-14T09:26:22.164Z,-0.93
2018-12-14T09:28:52.262Z,-0.85
2018-12-14T09:31:23.384Z,-0.85
2018-12-14T09:33:54.427Z,-0.81
2018-12-14T09:36:24.856Z,-0.72
2018-12-14T09:38:55.377Z,-0.77
2018-12-14T09:41:26.351Z,-0.77
2018-12-14T09:43:57.149Z,-0.76
2018-12-14T09:46:27.499Z,-0.71
2018-12-14T09:48:58.544Z,-0.58
2018-12-14T09:51:32.260Z,-0.54
2018-12-14T09:54:03.373Z,-0.56
2018-12-14T09:56:40.768Z,-0.44
2018-12-14T09:59:13.725Z,-0.40
2018-12-14T10:01:46.470Z,-0.33
2018-12-14T10:04:17.389Z,-0.28
2018-12-14T10:06:47.803Z,-0.28
2018-12-14T10:09:18.528Z,-0.17
2018-12-14T10:11:54.916Z,-0.10
2018-12-14T10:14:22.980Z,0.04
2018-12-14T10:16:53.417Z,0.04
2018-12-14T10:19:28.348Z,0.00
2018-12-14T10:22:00.350Z,0.08
2018-12-14T10:24:32.977Z,0.26
2018-12-14T10:27:05.728Z,0.45
2018-12-14T10:29:36.085Z,0.30
2018-12-14T10:32:06.415Z,0.60
2018-12-14T10:34:43.899Z,0.53
2018-12-14T10:37:14.672Z,0.60
2018-12-14T10:39:45.576Z,0.69
2018-12-14T10:42:18.873Z,0.61
2018-12-14T10:44:50.935Z,0.48
2018-12-14T10:47:23.616Z,0.51
2018-12-14T10:50:01.238Z,0.67
2018-12-14T10:52:34.139Z,0.50
2018-12-14T10:55:07.348Z,0.54
2018-12-14T10:57:40.375Z,0.61
2018-12-14T11:00:18.769Z,0.67
2018-12-14T11:02:51.666Z,0.75
2018-12-14T11:05:24.621Z,0.95
2018-12-14T11:07:55.820Z,0.97
2018-12-14T11:10:26.568Z,0.97
2018-12-14T11:12:59.590Z,0.59
2018-12-14T11:15:30.625Z,0.39
2018-12-14T11:18:01.878Z,0.45
2018-12-14T11:20:34.530Z,0.64
2018-12-14T11:23:06.196Z,0.76
2018-12-14T11:25:38.096Z,0.62
2018-12-14T11:28:09.123Z,0.68
2018-12-14T11:30:40.167Z,0.70
2018-12-14T11:33:10.288Z,0.67
2018-12-14T11:35:41.229Z,0.59
2018-12-14T11:38:12.241Z,0.38
2018-12-14T11:40:42.919Z,0.35
2018-12-14T11:43:17.017Z,0.36
2018-12-14T11:45:47.779Z,0.32
2018-12-14T11:48:18.136Z,0.46
2018-12-14T11:50:50.209Z,0.34
2018-12-14T11:57:15.247Z,0.35
2018-12-14T11:59:46.560Z,0.43
2018-12-14T12:02:16.206Z,0.43
2018-12-14T12:04:46.352Z,0.53
2018-12-14T12:07:17.415Z,0.51
2018-12-14T12:09:47.119Z,0.63
2018-12-14T12:12:18.396Z,0.53
2018-12-14T12:14:50.340Z,0.50
2018-12-14T12:17:20.346Z,0.63
2018-12-14T12:19:53.623Z,0.64
2018-12-14T12:22:24.731Z,0.65
2018-12-14T12:24:55.328Z,0.60
2018-12-14T12:27:26.031Z,0.65
2018-12-14T12:33:51.680Z,0.25
2018-12-14T12:36:22.630Z,0.30
2018-12-14T12:38:53.637Z,0.31
2018-12-14T12:41:23.658Z,0.34
2018-12-14T12:43:55.639Z,0.22
2018-12-14T12:46:25.655Z,0.19
2018-12-14T12:48:55.845Z,0.30
2018-12-14T12:51:26.948Z,0.41
2018-12-14T12:53:57.459Z,0.39
2018-12-14T12:56:28.793Z,0.29
2018-12-14T12:58:59.506Z,0.31
2018-12-14T13:01:29.748Z,0.30
2018-12-14T13:04:00.483Z,0.15
2018-12-14T13:06:30.444Z,0.04
2018-12-14T13:09:01.633Z,0.12
2018-12-14T13:11:31.665Z,0.05
2018-12-14T13:14:02.863Z,-0.03
2018-12-14T13:16:33.457Z,-0.05
2018-12-14T13:19:04.037Z,-0.03
2018-12-14T13:21:34.949Z,-0.02
2018-12-14T13:24:04.944Z,-0.01
2018-12-14T13:26:41.706Z,0.04
2018-12-14T13:29:12.514Z,0.14
2018-12-14T13:31:46.501Z,0.15
2018-12-14T13:34:16.768Z,0.11
2018-12-14T13:36:49.636Z,0.09
2018-12-14T13:39:21.021Z,0.07
2018-12-14T13:41:54.180Z,0.10
2018-12-14T13:44:26.532Z,-0.09
2018-12-14T13:46:58.899Z,-0.12
2018-12-14T13:49:30.695Z,-0.12
2018-12-14T13:52:00.733Z,-0.01
2018-12-14T13:58:24.100Z,-0.13
2018-12-14T14:00:54.005Z,-0.07
2018-12-14T14:03:25.650Z,-0.06
2018-12-14T14:05:57.042Z,-0.15
2018-12-14T14:08:27.065Z,-0.19
2018-12-14T14:10:56.971Z,-0.25
2018-12-14T14:13:28.290Z,-0.34
2018-12-14T14:16:01.277Z,-0.39
2018-12-14T14:18:33.145Z,-0.37
2018-12-14T14:21:08.905Z,-0.39
2018-12-14T14:23:40.610Z,-0.39
2018-12-14T14:26:24.314Z,-0.45
2018-12-14T14:28:56.009Z,-0.47
2018-12-14T14:31:26.835Z,-0.49
2018-12-14T14:33:59.977Z,-0.46
2018-12-14T14:36:35.484Z,-0.47
2018-12-14T14:39:12.806Z,-0.55
2018-12-14T14:41:43.852Z,-0.57
2018-12-14T14:44:14.081Z,-0.54
2018-12-14T14:46:44.161Z,-0.55
2018-12-14T14:49:15.278Z,-0.59
2018-12-14T14:51:45.617Z,-0.53
2018-12-14T14:54:16.063Z,-0.58
2018-12-14T14:56:49.901Z,-0.58
2018-12-14T14:59:21.317Z,-0.58
2018-12-14T15:01:52.395Z,-0.56
2018-12-14T15:04:22.704Z,-0.56
2018-12-14T15:07:05.183Z,-0.56
2018-12-14T15:09:36.227Z,-0.56
2018-12-14T15:12:06.176Z,-0.60
2018-12-14T15:14:37.264Z,-0.62
2018-12-14T15:17:08.252Z,-0.60
2018-12-14T15:19:38.931Z,-0.60
2018-12-14T15:22:09.143Z,-0.58
2018-12-14T15:24:40.159Z,-0.61
2018-12-14T15:27:10.116Z,-0.58
2018-12-14T15:29:41.440Z,-0.63
2018-12-14T15:32:12.639Z,-0.58
2018-12-14T15:34:42.167Z,-0.61
2018-12-14T15:37:14.241Z,-0.60
2018-12-14T15:39:46.565Z,-0.61
2018-12-14T15:42:17.546Z,-0.62
2018-12-14T15:44:47.201Z,-0.62
2018-12-14T15:47:18.651Z,-0.67
2018-12-14T15:49:49.639Z,-0.65
2018-12-14T15:52:20.282Z,-0.64
2018-12-14T15:54:51.518Z,-0.64
2018-12-14T15:57:21.957Z,-0.62
2018-12-14T15:59:53.252Z,-0.65
2018-12-14T16:02:23.712Z,-0.67
2018-12-14T16:04:53.425Z,-0.64
2018-12-14T16:07:25.312Z,-0.67
2018-12-14T16:09:56.205Z,-0.70
2018-12-14T16:12:30.239Z,-0.65
2018-12-14T16:15:00.895Z,-0.66
2018-12-14T16:17:31.421Z,-0.66
2018-12-14T16:20:02.062Z,-0.66
2018-12-14T16:22:33.526Z,-0.66
2018-12-14T16:25:07.189Z,-0.64
2018-12-14T16:27:39.982Z,-0.72
2018-12-14T16:30:13.064Z,-0.72
2018-12-14T16:32:43.962Z,-0.71
2018-12-14T16:35:14.129Z,-0.69
2018-12-14T16:37:44.292Z,-0.74
2018-12-14T16:40:14.471Z,-0.72
2018-12-14T16:42:44.588Z,-0.73
2018-12-14T16:45:14.898Z,-0.78
2018-12-14T16:47:45.129Z,-0.71
2018-12-14T16:50:16.409Z,-0.76
2018-12-14T16:52:47.687Z,-0.75
2018-12-14T16:55:18.032Z,-0.77
2018-12-14T16:57:49.732Z,-0.83
2018-12-14T17:00:20.208Z,-0.80
2018-12-14T17:02:50.469Z,-0.81
2018-12-14T17:05:20.548Z,-0.81
2018-12-14T17:07:51.004Z,-0.78
2018-12-14T17:10:21.225Z,-0.76
2018-12-14T17:12:51.441Z,-0.78
2018-12-14T17:15:21.577Z,-0.75
2018-12-14T17:17:51.968Z,-0.77
2018-12-14T17:20:23.039Z,-0.80
2018-12-14T17:22:53.165Z,-0.77
2018-12-14T17:25:24.300Z,-0.82
2018-12-14T17:27:55.366Z,-0.84
2018-12-14T17:30:25.730Z,-1.30
2018-12-14T17:32:55.948Z,-0.80
2018-12-14T17:35:26.216Z,-0.80
2018-12-14T17:37:56.295Z,-0.79
2018-12-14T17:40:26.652Z,-0.83
2018-12-14T17:42:56.809Z,-0.69
2018-12-14T17:45:26.951Z,-1.24
2018-12-14T17:47:57.079Z,-0.80
2018-12-14T17:50:27.568Z,-0.85
2018-12-14T17:52:57.718Z,-0.87
2018-12-14T17:55:27.951Z,-0.88
2018-12-14T17:57:58.644Z,-0.92
2018-12-14T18:00:28.904Z,-0.89
2018-12-14T18:02:58.932Z,-0.91
2018-12-14T18:05:29.063Z,-0.92
2018-12-14T18:08:05.447Z,-0.91
2018-12-14T18:10:35.610Z,-0.92
2018-12-14T18:13:05.800Z,-0.93
2018-12-14T18:15:36.128Z,-0.94
2018-12-14T18:18:06.351Z,-0.92
2018-12-14T18:20:36.583Z,-0.93
2018-12-14T18:23:06.680Z,-0.93
2018-12-14T18:25:36.882Z,-0.93
2018-12-14T18:28:06.921Z,-0.87
2018-12-14T18:30:37.795Z,-0.92
2018-12-14T18:33:09.253Z,-0.94
2018-12-14T18:35:39.599Z,-0.94
2018-12-14T18:38:10.874Z,-0.92
2018-12-14T18:40:41.209Z,-0.94
2018-12-14T18:43:11.402Z,-0.95
2018-12-14T18:45:41.990Z,-0.93
2018-12-14T18:48:12.374Z,-0.93
2018-12-14T18:50:42.649Z,-0.94
2018-12-14T18:53:12.916Z,-0.94
2018-12-14T18:55:43.225Z,-0.93
2018-12-14T18:58:13.458Z,-0.95
2018-12-14T19:00:43.690Z,-0.97
2018-12-14T19:03:14.447Z,-0.95
2018-12-14T19:05:44.481Z,-0.85
2018-12-14T19:08:14.778Z,-0.85
2018-12-14T19:10:45.097Z,-1.09
2018-12-14T19:13:15.363Z,-0.78
2018-12-14T19:15:45.432Z,-0.77
2018-12-14T19:18:15.665Z,-0.86
2018-12-14T19:20:45.837Z,-0.88
2018-12-14T19:27:12.358Z,-0.87
2018-12-14T19:29:42.603Z,-0.86
2018-12-14T19:32:13.444Z,-0.88
2018-12-14T19:34:43.894Z,-0.78
2018-12-14T19:37:14.203Z,-0.86
2018-12-14T19:39:44.667Z,-0.86
2018-12-14T19:42:14.758Z,-0.90
2018-12-14T19:44:44.979Z,-0.91
2018-12-14T19:47:15.555Z,-0.73
2018-12-14T19:49:45.977Z,-0.77
2018-12-14T19:52:16.315Z,-0.92
2018-12-14T19:54:46.420Z,-0.96
2018-12-14T19:57:16.751Z,-1.03
2018-12-14T19:59:47.138Z,-1.07
2018-12-14T20:02:17.607Z,-1.10
2018-12-14T20:04:47.883Z,-1.11
2018-12-14T20:07:18.150Z,-1.11
2018-12-14T20:09:48.214Z,-1.11
2018-12-14T20:12:18.540Z,-1.17
2018-12-14T20:14:48.905Z,-1.24
2018-12-14T20:17:19.124Z,-1.27
2018-12-14T20:19:49.354Z,-1.25
2018-12-14T20:22:19.694Z,-1.28
2018-12-14T20:24:50.115Z,-1.32
2018-12-14T20:27:21.294Z,-1.30
2018-12-14T20:29:51.485Z,-1.32
2018-12-14T20:32:21.698Z,-1.29
2018-12-14T20:34:52.082Z,-1.36
2018-12-14T20:37:22.383Z,-1.36
2018-12-14T20:39:52.791Z,-1.37
2018-12-14T20:42:23.102Z,-1.36
2018-12-14T20:44:53.479Z,-1.37
2018-12-14T20:47:23.660Z,-1.36
2018-12-14T20:49:53.774Z,-1.36
2018-12-14T20:52:24.139Z,-1.34
2018-12-14T20:54:54.239Z,-1.38
2018-12-14T20:57:24.576Z,-1.42
2018-12-14T20:59:54.693Z,-1.41
2018-12-14T21:02:24.954Z,-1.41
2018-12-14T21:04:55.269Z,-1.44
2018-12-14T21:07:25.762Z,-1.41
2018-12-14T21:09:55.985Z,-1.44
2018-12-14T21:12:26.207Z,-1.44
2018-12-14T21:14:56.540Z,-1.42
2018-12-14T21:17:26.916Z,-1.41
2018-12-14T21:19:57.253Z,-1.39
2018-12-14T21:22:27.402Z,-1.41
2018-12-14T21:24:57.580Z,-1.42
2018-12-14T21:27:27.962Z,-1.40
2018-12-14T21:29:58.191Z,-1.31
2018-12-14T21:32:28.353Z,-1.33
2018-12-14T21:34:58.695Z,-1.38
2018-12-14T21:37:29.074Z,-1.44
2018-12-14T21:39:59.281Z,-1.40
2018-12-14T21:42:29.850Z,-1.41
2018-12-14T21:45:00.241Z,-1.36
2018-12-14T21:47:30.439Z,-1.38
2018-12-14T21:50:00.735Z,-1.31
2018-12-14T21:52:31.251Z,-1.35
2018-12-14T21:55:01.484Z,-1.34
2018-12-14T21:57:31.841Z,-1.33
2018-12-14T22:00:02.088Z,-1.33
2018-12-14T22:06:21.353Z,-1.30
2018-12-14T22:08:52.009Z,-1.31
2018-12-14T22:11:22.206Z,-1.31
2018-12-14T22:13:52.426Z,-1.30
2018-12-14T22:16:23.283Z,-1.31
2018-12-14T22:18:53.523Z,-1.32
2018-12-14T22:21:24.209Z,-1.32
2018-12-14T22:23:54.756Z,-1.34
2018-12-14T22:26:25.031Z,-1.35
2018-12-14T22:28:55.167Z,-1.36
2018-12-14T22:31:25.299Z,-1.34
2018-12-14T22:33:55.496Z,-1.35
2018-12-14T22:36:25.904Z,-1.37
2018-12-14T22:38:56.111Z,-1.34
2018-12-14T22:41:26.296Z,-1.34
2018-12-14T22:43:56.882Z,-1.33
2018-12-14T22:46:27.337Z,-1.33
2018-12-14T22:48:57.444Z,-1.31
2018-12-14T22:51:27.563Z,-1.31
2018-12-14T22:53:57.785Z,-1.29
2018-12-14T22:56:27.893Z,-1.30
2018-12-14T22:58:58.224Z,-1.34
2018-12-14T23:01:28.569Z,-1.35
2018-12-14T23:03:58.729Z,-1.36
2018-12-14T23:06:29.020Z,-1.36
2018-12-14T23:08:59.136Z,-1.32
2018-12-14T23:11:29.480Z,-1.33
2018-12-14T23:14:00.302Z,-1.34
2018-12-14T23:16:30.912Z,-1.32
2018-12-14T23:19:01.172Z,-1.30
2018-12-14T23:21:34.315Z,-1.29
2018-12-14T23:24:04.650Z,-1.28
2018-12-14T23:26:34.842Z,-1.25
2018-12-14T23:29:05.001Z,-1.28
2018-12-14T23:31:35.727Z,-1.28
2018-12-14T23:34:06.227Z,-1.28
2018-12-14T23:36:36.584Z,-1.26
2018-12-14T23:39:08.272Z,-1.25
2018-12-14T23:41:38.459Z,-1.21
2018-12-14T23:44:08.568Z,-1.18
2018-12-14T23:46:38.865Z,-1.19
2018-12-14T23:49:09.180Z,-1.19
2018-12-14T23:51:39.508Z,-1.18
2018-12-14T23:54:10.088Z,-1.18
2018-12-14T23:56:40.199Z,-1.15
2018-12-14T23:59:10.311Z,-1.15
